sensor_id;sensor_type;location;lat;lon;timestamp;temperature;humidity
59961;DHT22;55902;-37.980;-63.602;2023-05-10T00:02:08;10.90;99.90
59961;DHT22;55902;-37.980;-63.602;2023-05-10T00:04:35;10.90;99.90
59961;DHT22;55902;-37.980;-63.602;2023-05-10T00:07:02;10.80;99.90
59961;DHT22;55902;-37.980;-63.602;2023-05-10T00:09:29;10.80;99.90
59961;DHT22;55902;-37.980;-63.602;2023-05-10T00:11:56;10.80;99.90
59961;DHT22;55902;-37.980;-63.602;2023-05-10T00:14:24;10.70;99.90
59961;DHT22;55902;-37.980;-63.602;2023-05-10T00:16:51;10.70;99.90
59961;DHT22;55902;-37.980;-63.602;2023-05-10T00:19:18;10.70;99.90
59961;DHT22;55902;-37.980;-63.602;2023-05-10T00:21:48;10.60;99.90
59961;DHT22;55902;-37.980;-63.602;2023-05-10T00:24:15;10.60;99.90
59961;DHT22;55902;-37.980;-63.602;2023-05-10T00:26:42;10.60;99.90
59961;DHT22;55902;-37.980;-63.602;2023-05-10T00:29:09;10.50;99.90
59961;DHT22;55902;-37.980;-63.602;2023-05-10T00:31:36;10.50;99.90
59961;DHT22;55902;-37.980;-63.602;2023-05-10T00:34:03;10.50;99.90
59961;DHT22;55902;-37.980;-63.602;2023-05-10T00:36:30;10.50;99.90
59961;DHT22;55902;-37.980;-63.602;2023-05-10T00:38:58;10.40;99.90
59961;DHT22;55902;-37.980;-63.602;2023-05-10T00:41:25;10.40;99.90
59961;DHT22;55902;-37.980;-63.602;2023-05-10T00:43:52;10.40;99.90
59961;DHT22;55902;-37.980;-63.602;2023-05-10T00:46:19;10.40;99.90
59961;DHT22;55902;-37.980;-63.602;2023-05-10T00:48:46;10.40;99.90
59961;DHT22;55902;-37.980;-63.602;2023-05-10T00:51:14;10.40;99.90
59961;DHT22;55902;-37.980;-63.602;2023-05-10T00:53:41;10.40;99.90
59961;DHT22;55902;-37.980;-63.602;2023-05-10T00:56:08;10.40;99.90
59961;DHT22;55902;-37.980;-63.602;2023-05-10T00:58:35;10.40;99.90
59961;DHT22;55902;-37.980;-63.602;2023-05-10T01:01:02;10.50;99.90
59961;DHT22;55902;-37.980;-63.602;2023-05-10T01:03:31;10.50;99.90
59961;DHT22;55902;-37.980;-63.602;2023-05-10T01:05:58;10.60;99.90
59961;DHT22;55902;-37.980;-63.602;2023-05-10T01:08:26;10.60;99.90
59961;DHT22;55902;-37.980;-63.602;2023-05-10T01:10:54;10.60;99.90
59961;DHT22;55902;-37.980;-63.602;2023-05-10T01:15:55;10.60;99.90
59961;DHT22;55902;-37.980;-63.602;2023-05-10T01:18:23;10.60;99.90
59961;DHT22;55902;-37.980;-63.602;2023-05-10T01:23:52;10.60;99.90
59961;DHT22;55902;-37.980;-63.602;2023-05-10T01:32:21;10.70;99.90
59961;DHT22;55902;-37.980;-63.602;2023-05-10T01:43:30;10.50;99.90
59961;DHT22;55902;-37.980;-63.602;2023-05-10T01:46:05;10.50;99.90
59961;DHT22;55902;-37.980;-63.602;2023-05-10T01:48:47;10.50;99.90
59961;DHT22;55902;-37.980;-63.602;2023-05-10T01:51:26;10.40;99.90
59961;DHT22;55902;-37.980;-63.602;2023-05-10T01:53:58;10.40;99.90
59961;DHT22;55902;-37.980;-63.602;2023-05-10T01:56:28;10.40;99.90
59961;DHT22;55902;-37.980;-63.602;2023-05-10T01:58:57;10.30;99.90
59961;DHT22;55902;-37.980;-63.602;2023-05-10T02:11:33;10.30;99.90
59961;DHT22;55902;-37.980;-63.602;2023-05-10T02:14:00;10.20;99.90
59961;DHT22;55902;-37.980;-63.602;2023-05-10T02:16:28;10.20;99.90
59961;DHT22;55902;-37.980;-63.602;2023-05-10T02:18:57;10.20;99.90
59961;DHT22;55902;-37.980;-63.602;2023-05-10T02:21:26;10.20;99.90
59961;DHT22;55902;-37.980;-63.602;2023-05-10T02:23:55;10.20;99.90
59961;DHT22;55902;-37.980;-63.602;2023-05-10T02:26:24;10.20;99.90
59961;DHT22;55902;-37.980;-63.602;2023-05-10T02:28:53;10.20;99.90
59961;DHT22;55902;-37.980;-63.602;2023-05-10T02:31:21;10.20;99.90
59961;DHT22;55902;-37.980;-63.602;2023-05-10T02:33:49;10.20;99.90
59961;DHT22;55902;-37.980;-63.602;2023-05-10T02:36:18;10.20;99.90
59961;DHT22;55902;-37.980;-63.602;2023-05-10T02:38:47;10.20;99.90
59961;DHT22;55902;-37.980;-63.602;2023-05-10T02:41:16;10.20;99.90
59961;DHT22;55902;-37.980;-63.602;2023-05-10T02:43:45;10.20;99.90
59961;DHT22;55902;-37.980;-63.602;2023-05-10T02:46:13;10.20;99.90
59961;DHT22;55902;-37.980;-63.602;2023-05-10T02:48:40;10.20;99.90
59961;DHT22;55902;-37.980;-63.602;2023-05-10T02:51:08;10.20;99.90
59961;DHT22;55902;-37.980;-63.602;2023-05-10T02:53:40;10.20;99.90
59961;DHT22;55902;-37.980;-63.602;2023-05-10T02:56:35;10.20;99.90
59961;DHT22;55902;-37.980;-63.602;2023-05-10T02:59:03;10.20;99.90
59961;DHT22;55902;-37.980;-63.602;2023-05-10T03:01:30;10.20;99.90
59961;DHT22;55902;-37.980;-63.602;2023-05-10T03:16:46;10.00;99.90
59961;DHT22;55902;-37.980;-63.602;2023-05-10T03:19:27;9.90;99.90
59961;DHT22;55902;-37.980;-63.602;2023-05-10T03:22:00;9.90;99.90
59961;DHT22;55902;-37.980;-63.602;2023-05-10T03:24:30;9.90;99.90
59961;DHT22;55902;-37.980;-63.602;2023-05-10T03:27:00;9.80;99.90
59961;DHT22;55902;-37.980;-63.602;2023-05-10T03:29:30;9.80;99.90
59961;DHT22;55902;-37.980;-63.602;2023-05-10T03:32:00;9.80;99.90
59961;DHT22;55902;-37.980;-63.602;2023-05-10T03:34:30;9.80;99.90
59961;DHT22;55902;-37.980;-63.602;2023-05-10T03:37:00;9.80;99.90
59961;DHT22;55902;-37.980;-63.602;2023-05-10T03:39:27;9.70;99.90
59961;DHT22;55902;-37.980;-63.602;2023-05-10T03:41:54;9.70;99.90
59961;DHT22;55902;-37.980;-63.602;2023-05-10T03:44:21;9.70;99.90
59961;DHT22;55902;-37.980;-63.602;2023-05-10T03:46:48;9.60;99.90
59961;DHT22;55902;-37.980;-63.602;2023-05-10T03:49:15;9.60;99.90
59961;DHT22;55902;-37.980;-63.602;2023-05-10T03:51:42;9.60;99.90
59961;DHT22;55902;-37.980;-63.602;2023-05-10T03:54:09;9.60;99.90
59961;DHT22;55902;-37.980;-63.602;2023-05-10T03:56:36;9.60;99.90
59961;DHT22;55902;-37.980;-63.602;2023-05-10T03:59:03;9.50;99.90
59961;DHT22;55902;-37.980;-63.602;2023-05-10T04:01:34;9.50;99.90
59961;DHT22;55902;-37.980;-63.602;2023-05-10T04:04:01;9.50;99.90
59961;DHT22;55902;-37.980;-63.602;2023-05-10T04:06:28;9.50;99.90
59961;DHT22;55902;-37.980;-63.602;2023-05-10T04:08:55;9.50;99.90
59961;DHT22;55902;-37.980;-63.602;2023-05-10T04:11:22;9.40;99.90
59961;DHT22;55902;-37.980;-63.602;2023-05-10T04:17:12;9.40;99.90
59961;DHT22;55902;-37.980;-63.602;2023-05-10T04:27:02;9.20;99.90
59961;DHT22;55902;-37.980;-63.602;2023-05-10T04:29:30;9.20;99.90
59961;DHT22;55902;-37.980;-63.602;2023-05-10T04:31:57;9.10;99.90
59961;DHT22;55902;-37.980;-63.602;2023-05-10T04:34:25;9.10;99.90
59961;DHT22;55902;-37.980;-63.602;2023-05-10T04:36:51;9.10;99.90
59961;DHT22;55902;-37.980;-63.602;2023-05-10T04:39:18;9.10;99.90
59961;DHT22;55902;-37.980;-63.602;2023-05-10T04:41:45;9.00;99.90
59961;DHT22;55902;-37.980;-63.602;2023-05-10T04:44:12;9.00;99.90
59961;DHT22;55902;-37.980;-63.602;2023-05-10T04:46:39;9.00;99.90
59961;DHT22;55902;-37.980;-63.602;2023-05-10T04:49:06;9.00;99.90
59961;DHT22;55902;-37.980;-63.602;2023-05-10T04:51:33;9.00;99.90
59961;DHT22;55902;-37.980;-63.602;2023-05-10T04:54:00;9.00;99.90
59961;DHT22;55902;-37.980;-63.602;2023-05-10T04:56:27;9.00;99.90
59961;DHT22;55902;-37.980;-63.602;2023-05-10T04:58:54;9.00;99.90
59961;DHT22;55902;-37.980;-63.602;2023-05-10T05:01:21;8.90;99.90
59961;DHT22;55902;-37.980;-63.602;2023-05-10T05:03:49;8.90;99.90
59961;DHT22;55902;-37.980;-63.602;2023-05-10T05:06:16;8.90;99.90
59961;DHT22;55902;-37.980;-63.602;2023-05-10T05:08:43;8.90;99.90
59961;DHT22;55902;-37.980;-63.602;2023-05-10T05:11:10;8.90;99.90
59961;DHT22;55902;-37.980;-63.602;2023-05-10T05:13:37;8.80;99.90
59961;DHT22;55902;-37.980;-63.602;2023-05-10T05:16:05;8.80;99.90
59961;DHT22;55902;-37.980;-63.602;2023-05-10T05:18:32;8.70;99.90
59961;DHT22;55902;-37.980;-63.602;2023-05-10T05:20:59;8.70;99.90
59961;DHT22;55902;-37.980;-63.602;2023-05-10T05:23:27;8.70;99.90
59961;DHT22;55902;-37.980;-63.602;2023-05-10T05:25:54;8.70;99.90
59961;DHT22;55902;-37.980;-63.602;2023-05-10T05:28:21;8.70;99.90
59961;DHT22;55902;-37.980;-63.602;2023-05-10T05:30:48;8.70;99.90
59961;DHT22;55902;-37.980;-63.602;2023-05-10T05:33:15;8.70;99.90
59961;DHT22;55902;-37.980;-63.602;2023-05-10T05:35:42;8.70;99.90
59961;DHT22;55902;-37.980;-63.602;2023-05-10T05:41:35;8.70;99.90
59961;DHT22;55902;-37.980;-63.602;2023-05-10T05:44:02;8.70;99.90
59961;DHT22;55902;-37.980;-63.602;2023-05-10T05:46:29;8.70;99.90
59961;DHT22;55902;-37.980;-63.602;2023-05-10T05:48:56;8.60;99.90
59961;DHT22;55902;-37.980;-63.602;2023-05-10T05:51:24;8.60;99.90
59961;DHT22;55902;-37.980;-63.602;2023-05-10T05:53:53;8.60;99.90
59961;DHT22;55902;-37.980;-63.602;2023-05-10T05:56:20;8.60;99.90
59961;DHT22;55902;-37.980;-63.602;2023-05-10T05:58:53;8.60;99.90
59961;DHT22;55902;-37.980;-63.602;2023-05-10T06:01:20;8.50;99.90
59961;DHT22;55902;-37.980;-63.602;2023-05-10T06:03:47;8.50;99.90
59961;DHT22;55902;-37.980;-63.602;2023-05-10T06:06:14;8.50;99.90
59961;DHT22;55902;-37.980;-63.602;2023-05-10T06:08:42;8.50;99.90
59961;DHT22;55902;-37.980;-63.602;2023-05-10T06:11:09;8.50;99.90
59961;DHT22;55902;-37.980;-63.602;2023-05-10T06:13:36;8.50;99.90
59961;DHT22;55902;-37.980;-63.602;2023-05-10T06:16:03;8.50;99.90
59961;DHT22;55902;-37.980;-63.602;2023-05-10T06:18:30;8.50;99.90
59961;DHT22;55902;-37.980;-63.602;2023-05-10T06:20:57;8.50;99.90
59961;DHT22;55902;-37.980;-63.602;2023-05-10T06:23:24;8.40;99.90
59961;DHT22;55902;-37.980;-63.602;2023-05-10T06:25:52;8.40;99.90
59961;DHT22;55902;-37.980;-63.602;2023-05-10T06:28:19;8.40;99.90
59961;DHT22;55902;-37.980;-63.602;2023-05-10T06:30:46;8.40;99.90
59961;DHT22;55902;-37.980;-63.602;2023-05-10T06:33:13;8.30;99.90
59961;DHT22;55902;-37.980;-63.602;2023-05-10T06:35:40;8.30;99.90
59961;DHT22;55902;-37.980;-63.602;2023-05-10T06:38:07;8.30;99.90
59961;DHT22;55902;-37.980;-63.602;2023-05-10T06:40:34;8.20;99.90
59961;DHT22;55902;-37.980;-63.602;2023-05-10T06:43:02;8.20;99.90
59961;DHT22;55902;-37.980;-63.602;2023-05-10T06:45:29;8.20;99.90
59961;DHT22;55902;-37.980;-63.602;2023-05-10T06:47:59;8.20;99.90
59961;DHT22;55902;-37.980;-63.602;2023-05-10T06:50:26;8.20;99.90
59961;DHT22;55902;-37.980;-63.602;2023-05-10T06:52:53;8.10;99.90
59961;DHT22;55902;-37.980;-63.602;2023-05-10T06:55:21;8.10;99.90
59961;DHT22;55902;-37.980;-63.602;2023-05-10T06:57:48;8.00;99.90
59961;DHT22;55902;-37.980;-63.602;2023-05-10T07:00:17;8.00;99.90
59961;DHT22;55902;-37.980;-63.602;2023-05-10T07:02:44;8.00;99.90
59961;DHT22;55902;-37.980;-63.602;2023-05-10T07:05:11;8.00;99.90
59961;DHT22;55902;-37.980;-63.602;2023-05-10T07:07:38;8.00;99.90
59961;DHT22;55902;-37.980;-63.602;2023-05-10T07:10:06;8.00;99.90
59961;DHT22;55902;-37.980;-63.602;2023-05-10T07:12:34;7.90;99.90
59961;DHT22;55902;-37.980;-63.602;2023-05-10T07:15:01;7.90;99.90
59961;DHT22;55902;-37.980;-63.602;2023-05-10T07:17:28;7.90;99.90
59961;DHT22;55902;-37.980;-63.602;2023-05-10T07:19:55;7.90;99.90
59961;DHT22;55902;-37.980;-63.602;2023-05-10T07:22:22;7.90;99.90
59961;DHT22;55902;-37.980;-63.602;2023-05-10T07:24:49;7.90;99.90
59961;DHT22;55902;-37.980;-63.602;2023-05-10T07:27:16;7.90;99.90
59961;DHT22;55902;-37.980;-63.602;2023-05-10T07:29:43;7.80;99.90
59961;DHT22;55902;-37.980;-63.602;2023-05-10T07:32:10;7.80;99.90
59961;DHT22;55902;-37.980;-63.602;2023-05-10T07:34:37;7.80;99.90
59961;DHT22;55902;-37.980;-63.602;2023-05-10T07:37:04;7.80;99.90
59961;DHT22;55902;-37.980;-63.602;2023-05-10T07:49:39;7.80;99.90
59961;DHT22;55902;-37.980;-63.602;2023-05-10T07:52:06;7.80;99.90
59961;DHT22;55902;-37.980;-63.602;2023-05-10T07:54:34;7.80;99.90
59961;DHT22;55902;-37.980;-63.602;2023-05-10T07:57:01;7.80;99.90
59961;DHT22;55902;-37.980;-63.602;2023-05-10T07:59:29;7.80;99.90
59961;DHT22;55902;-37.980;-63.602;2023-05-10T08:01:56;7.80;99.90
59961;DHT22;55902;-37.980;-63.602;2023-05-10T08:04:23;7.80;99.90
59961;DHT22;55902;-37.980;-63.602;2023-05-10T08:06:50;7.80;99.90
59961;DHT22;55902;-37.980;-63.602;2023-05-10T08:09:20;7.80;99.90
59961;DHT22;55902;-37.980;-63.602;2023-05-10T08:11:50;7.70;99.90
59961;DHT22;55902;-37.980;-63.602;2023-05-10T08:14:17;7.70;99.90
59961;DHT22;55902;-37.980;-63.602;2023-05-10T08:16:44;7.70;99.90
59961;DHT22;55902;-37.980;-63.602;2023-05-10T08:19:11;7.60;99.90
59961;DHT22;55902;-37.980;-63.602;2023-05-10T08:21:38;7.60;99.90
59961;DHT22;55902;-37.980;-63.602;2023-05-10T08:24:07;7.60;99.90
59961;DHT22;55902;-37.980;-63.602;2023-05-10T08:26:34;7.60;99.90
59961;DHT22;55902;-37.980;-63.602;2023-05-10T08:29:01;7.50;99.90
59961;DHT22;55902;-37.980;-63.602;2023-05-10T08:31:28;7.50;99.90
59961;DHT22;55902;-37.980;-63.602;2023-05-10T08:33:55;7.50;99.90
59961;DHT22;55902;-37.980;-63.602;2023-05-10T08:36:22;7.50;99.90
59961;DHT22;55902;-37.980;-63.602;2023-05-10T08:38:51;7.50;99.90
59961;DHT22;55902;-37.980;-63.602;2023-05-10T08:41:20;7.50;99.90
59961;DHT22;55902;-37.980;-63.602;2023-05-10T08:43:53;7.50;99.90
59961;DHT22;55902;-37.980;-63.602;2023-05-10T08:46:22;7.50;99.90
59961;DHT22;55902;-37.980;-63.602;2023-05-10T08:48:50;7.50;99.90
59961;DHT22;55902;-37.980;-63.602;2023-05-10T08:51:19;7.50;99.90
59961;DHT22;55902;-37.980;-63.602;2023-05-10T08:53:47;7.50;99.90
59961;DHT22;55902;-37.980;-63.602;2023-05-10T08:56:16;7.50;99.90
59961;DHT22;55902;-37.980;-63.602;2023-05-10T08:58:44;7.50;99.90
59961;DHT22;55902;-37.980;-63.602;2023-05-10T09:01:12;7.50;99.90
59961;DHT22;55902;-37.980;-63.602;2023-05-10T09:03:40;7.50;99.90
59961;DHT22;55902;-37.980;-63.602;2023-05-10T09:06:07;7.50;99.90
59961;DHT22;55902;-37.980;-63.602;2023-05-10T09:08:35;7.50;99.90
59961;DHT22;55902;-37.980;-63.602;2023-05-10T09:11:03;7.50;99.90
59961;DHT22;55902;-37.980;-63.602;2023-05-10T09:13:31;7.50;99.90
59961;DHT22;55902;-37.980;-63.602;2023-05-10T09:15:58;7.50;99.90
59961;DHT22;55902;-37.980;-63.602;2023-05-10T09:18:26;7.50;99.90
59961;DHT22;55902;-37.980;-63.602;2023-05-10T09:20:56;7.50;99.90
59961;DHT22;55902;-37.980;-63.602;2023-05-10T09:23:23;7.50;99.90
59961;DHT22;55902;-37.980;-63.602;2023-05-10T09:26:04;7.50;99.90
59961;DHT22;55902;-37.980;-63.602;2023-05-10T09:28:49;7.50;99.90
59961;DHT22;55902;-37.980;-63.602;2023-05-10T09:31:17;7.50;99.90
59961;DHT22;55902;-37.980;-63.602;2023-05-10T09:33:46;7.50;99.90
59961;DHT22;55902;-37.980;-63.602;2023-05-10T09:36:14;7.50;99.90
59961;DHT22;55902;-37.980;-63.602;2023-05-10T09:38:51;7.50;99.90
59961;DHT22;55902;-37.980;-63.602;2023-05-10T09:41:21;7.50;99.90
59961;DHT22;55902;-37.980;-63.602;2023-05-10T09:43:49;7.50;99.90
59961;DHT22;55902;-37.980;-63.602;2023-05-10T09:46:17;7.50;99.90
59961;DHT22;55902;-37.980;-63.602;2023-05-10T09:48:47;7.50;99.90
59961;DHT22;55902;-37.980;-63.602;2023-05-10T09:51:25;7.50;99.90
59961;DHT22;55902;-37.980;-63.602;2023-05-10T09:54:22;7.50;99.90
59961;DHT22;55902;-37.980;-63.602;2023-05-10T09:56:50;7.50;99.90
59961;DHT22;55902;-37.980;-63.602;2023-05-10T09:59:17;7.50;99.90
59961;DHT22;55902;-37.980;-63.602;2023-05-10T10:01:50;7.50;99.90
59961;DHT22;55902;-37.980;-63.602;2023-05-10T10:04:17;7.50;99.90
59961;DHT22;55902;-37.980;-63.602;2023-05-10T10:06:46;7.50;99.90
59961;DHT22;55902;-37.980;-63.602;2023-05-10T10:09:14;7.50;99.90
59961;DHT22;55902;-37.980;-63.602;2023-05-10T10:11:41;7.40;99.90
59961;DHT22;55902;-37.980;-63.602;2023-05-10T10:14:08;7.40;99.90
59961;DHT22;55902;-37.980;-63.602;2023-05-10T10:16:36;7.40;99.90
59961;DHT22;55902;-37.980;-63.602;2023-05-10T10:19:03;7.40;99.90
59961;DHT22;55902;-37.980;-63.602;2023-05-10T10:21:30;7.40;99.90
59961;DHT22;55902;-37.980;-63.602;2023-05-10T10:23:58;7.40;99.90
59961;DHT22;55902;-37.980;-63.602;2023-05-10T10:26:25;7.40;99.90
59961;DHT22;55902;-37.980;-63.602;2023-05-10T10:34:30;7.40;99.90
59961;DHT22;55902;-37.980;-63.602;2023-05-10T10:36:58;7.30;99.90
59961;DHT22;55902;-37.980;-63.602;2023-05-10T10:39:31;7.30;99.90
59961;DHT22;55902;-37.980;-63.602;2023-05-10T10:41:59;7.30;99.90
59961;DHT22;55902;-37.980;-63.602;2023-05-10T10:52:36;7.60;99.90
59961;DHT22;55902;-37.980;-63.602;2023-05-10T10:57:53;7.70;99.90
59961;DHT22;55902;-37.980;-63.602;2023-05-10T11:00:36;7.80;99.90
59961;DHT22;55902;-37.980;-63.602;2023-05-10T11:05:44;7.90;99.90
59961;DHT22;55902;-37.980;-63.602;2023-05-10T11:08:32;8.00;99.90
59961;DHT22;55902;-37.980;-63.602;2023-05-10T11:13:34;8.20;99.90
59961;DHT22;55902;-37.980;-63.602;2023-05-10T11:16:40;8.30;99.90
59961;DHT22;55902;-37.980;-63.602;2023-05-10T11:19:11;8.40;99.90
59961;DHT22;55902;-37.980;-63.602;2023-05-10T11:24:32;8.60;99.90
59961;DHT22;55902;-37.980;-63.602;2023-05-10T11:27:00;8.60;99.90
59961;DHT22;55902;-37.980;-63.602;2023-05-10T11:29:27;8.70;99.90
59961;DHT22;55902;-37.980;-63.602;2023-05-10T11:31:57;8.80;99.90
59961;DHT22;55902;-37.980;-63.602;2023-05-10T11:34:31;8.80;99.90
59961;DHT22;55902;-37.980;-63.602;2023-05-10T11:37:01;8.90;99.90
59961;DHT22;55902;-37.980;-63.602;2023-05-10T11:39:30;9.00;99.90
59961;DHT22;55902;-37.980;-63.602;2023-05-10T11:41:58;9.10;99.90
59961;DHT22;55902;-37.980;-63.602;2023-05-10T11:44:32;9.20;99.90
59961;DHT22;55902;-37.980;-63.602;2023-05-10T11:47:00;9.20;99.90
59961;DHT22;55902;-37.980;-63.602;2023-05-10T11:49:28;9.30;99.90
59961;DHT22;55902;-37.980;-63.602;2023-05-10T11:52:08;9.30;99.90
59961;DHT22;55902;-37.980;-63.602;2023-05-10T11:54:35;9.40;99.90
59961;DHT22;55902;-37.980;-63.602;2023-05-10T11:57:03;9.50;99.90
59961;DHT22;55902;-37.980;-63.602;2023-05-10T12:00:00;9.50;99.90
59961;DHT22;55902;-37.980;-63.602;2023-05-10T12:02:28;9.70;99.90
59961;DHT22;55902;-37.980;-63.602;2023-05-10T12:04:56;9.70;99.90
59961;DHT22;55902;-37.980;-63.602;2023-05-10T12:07:25;9.80;99.90
59961;DHT22;55902;-37.980;-63.602;2023-05-10T12:10:12;9.90;99.90
59961;DHT22;55902;-37.980;-63.602;2023-05-10T12:12:47;10.00;99.90
59961;DHT22;55902;-37.980;-63.602;2023-05-10T12:15:24;10.10;99.90
59961;DHT22;55902;-37.980;-63.602;2023-05-10T12:17:51;10.20;99.90
59961;DHT22;55902;-37.980;-63.602;2023-05-10T12:20:28;10.40;99.90
59961;DHT22;55902;-37.980;-63.602;2023-05-10T12:22:57;10.40;99.90
59961;DHT22;55902;-37.980;-63.602;2023-05-10T12:25:35;10.50;99.90
59961;DHT22;55902;-37.980;-63.602;2023-05-10T12:28:13;10.60;99.90
59961;DHT22;55902;-37.980;-63.602;2023-05-10T12:30:41;10.70;99.90
59961;DHT22;55902;-37.980;-63.602;2023-05-10T12:33:14;10.80;99.90
59961;DHT22;55902;-37.980;-63.602;2023-05-10T12:35:46;11.00;99.90
59961;DHT22;55902;-37.980;-63.602;2023-05-10T12:38:29;11.10;99.90
59961;DHT22;55902;-37.980;-63.602;2023-05-10T12:41:06;11.30;99.90
59961;DHT22;55902;-37.980;-63.602;2023-05-10T12:43:36;11.40;99.90
59961;DHT22;55902;-37.980;-63.602;2023-05-10T12:46:11;11.60;99.90
59961;DHT22;55902;-37.980;-63.602;2023-05-10T12:48:39;12.00;99.90
59961;DHT22;55902;-37.980;-63.602;2023-05-10T12:51:13;12.50;99.90
59961;DHT22;55902;-37.980;-63.602;2023-05-10T12:53:55;13.00;99.90
59961;DHT22;55902;-37.980;-63.602;2023-05-10T12:56:23;13.40;99.90
59961;DHT22;55902;-37.980;-63.602;2023-05-10T12:59:13;13.90;99.90
59961;DHT22;55902;-37.980;-63.602;2023-05-10T13:01:40;14.30;99.90
59961;DHT22;55902;-37.980;-63.602;2023-05-10T13:04:08;14.90;99.90
59961;DHT22;55902;-37.980;-63.602;2023-05-10T13:06:35;15.20;99.90
59961;DHT22;55902;-37.980;-63.602;2023-05-10T13:09:08;15.60;99.90
59961;DHT22;55902;-37.980;-63.602;2023-05-10T13:11:36;16.10;99.90
59961;DHT22;55902;-37.980;-63.602;2023-05-10T13:14:03;16.60;99.90
59961;DHT22;55902;-37.980;-63.602;2023-05-10T13:16:33;17.00;99.90
59961;DHT22;55902;-37.980;-63.602;2023-05-10T13:19:01;17.50;99.50
59961;DHT22;55902;-37.980;-63.602;2023-05-10T13:21:30;17.90;98.50
59961;DHT22;55902;-37.980;-63.602;2023-05-10T13:24:20;18.30;97.30
59961;DHT22;55902;-37.980;-63.602;2023-05-10T13:26:48;18.60;94.70
59961;DHT22;55902;-37.980;-63.602;2023-05-10T13:29:15;18.80;96.00
59961;DHT22;55902;-37.980;-63.602;2023-05-10T13:31:44;19.10;95.50
59961;DHT22;55902;-37.980;-63.602;2023-05-10T13:34:15;19.30;96.20
59961;DHT22;55902;-37.980;-63.602;2023-05-10T13:36:45;19.70;95.60
59961;DHT22;55902;-37.980;-63.602;2023-05-10T13:39:13;19.90;94.90
59961;DHT22;55902;-37.980;-63.602;2023-05-10T13:41:41;20.20;95.60
59961;DHT22;55902;-37.980;-63.602;2023-05-10T13:44:08;20.50;93.00
59961;DHT22;55902;-37.980;-63.602;2023-05-10T13:46:36;20.70;93.10
59961;DHT22;55902;-37.980;-63.602;2023-05-10T13:49:05;21.00;94.30
59961;DHT22;55902;-37.980;-63.602;2023-05-10T13:51:35;21.20;92.40
59961;DHT22;55902;-37.980;-63.602;2023-05-10T13:54:28;21.50;92.70
59961;DHT22;55902;-37.980;-63.602;2023-05-10T13:57:20;21.60;90.90
59961;DHT22;55902;-37.980;-63.602;2023-05-10T13:59:48;21.60;90.20
59961;DHT22;55902;-37.980;-63.602;2023-05-10T14:02:15;21.80;91.90
59961;DHT22;55902;-37.980;-63.602;2023-05-10T14:04:42;21.90;90.90
59961;DHT22;55902;-37.980;-63.602;2023-05-10T14:07:10;22.00;91.60
59961;DHT22;55902;-37.980;-63.602;2023-05-10T14:09:44;22.00;92.10
59961;DHT22;55902;-37.980;-63.602;2023-05-10T14:12:13;22.20;91.50
59961;DHT22;55902;-37.980;-63.602;2023-05-10T14:14:43;22.40;90.60
59961;DHT22;55902;-37.980;-63.602;2023-05-10T14:17:15;22.50;90.60
59961;DHT22;55902;-37.980;-63.602;2023-05-10T14:19:47;22.70;90.80
59961;DHT22;55902;-37.980;-63.602;2023-05-10T14:22:15;22.80;90.60
59961;DHT22;55902;-37.980;-63.602;2023-05-10T14:24:42;23.10;87.80
59961;DHT22;55902;-37.980;-63.602;2023-05-10T14:27:13;23.30;88.90
59961;DHT22;55902;-37.980;-63.602;2023-05-10T14:29:40;23.50;90.00
59961;DHT22;55902;-37.980;-63.602;2023-05-10T14:32:11;23.70;86.50
59961;DHT22;55902;-37.980;-63.602;2023-05-10T14:34:42;23.70;86.10
59961;DHT22;55902;-37.980;-63.602;2023-05-10T14:37:14;23.90;89.00
59961;DHT22;55902;-37.980;-63.602;2023-05-10T14:39:53;24.20;89.20
59961;DHT22;55902;-37.980;-63.602;2023-05-10T14:42:41;24.20;83.70
59961;DHT22;55902;-37.980;-63.602;2023-05-10T14:45:10;24.30;84.40
59961;DHT22;55902;-37.980;-63.602;2023-05-10T14:47:39;24.30;84.80
59961;DHT22;55902;-37.980;-63.602;2023-05-10T14:50:07;24.00;84.70
59961;DHT22;55902;-37.980;-63.602;2023-05-10T14:52:42;23.70;86.10
59961;DHT22;55902;-37.980;-63.602;2023-05-10T14:55:09;23.20;86.00
59961;DHT22;55902;-37.980;-63.602;2023-05-10T14:57:37;22.90;87.40
59961;DHT22;55902;-37.980;-63.602;2023-05-10T15:00:05;22.80;86.40
59961;DHT22;55902;-37.980;-63.602;2023-05-10T15:02:33;22.70;86.20
59961;DHT22;55902;-37.980;-63.602;2023-05-10T15:05:04;22.60;87.40
59961;DHT22;55902;-37.980;-63.602;2023-05-10T15:07:31;22.70;88.10
59961;DHT22;55902;-37.980;-63.602;2023-05-10T15:09:59;22.80;87.60
59961;DHT22;55902;-37.980;-63.602;2023-05-10T15:12:26;22.90;85.80
59961;DHT22;55902;-37.980;-63.602;2023-05-10T15:14:57;22.70;84.20
59961;DHT22;55902;-37.980;-63.602;2023-05-10T15:17:49;22.70;83.40
59961;DHT22;55902;-37.980;-63.602;2023-05-10T15:20:17;22.90;85.70
59961;DHT22;55902;-37.980;-63.602;2023-05-10T15:23:02;23.30;85.30
59961;DHT22;55902;-37.980;-63.602;2023-05-10T15:25:29;23.30;85.10
59961;DHT22;55902;-37.980;-63.602;2023-05-10T15:27:57;23.00;85.70
59961;DHT22;55902;-37.980;-63.602;2023-05-10T15:33:19;23.40;85.80
59961;DHT22;55902;-37.980;-63.602;2023-05-10T15:35:46;23.40;85.80
59961;DHT22;55902;-37.980;-63.602;2023-05-10T15:38:14;23.80;82.90
59961;DHT22;55902;-37.980;-63.602;2023-05-10T15:40:41;24.50;82.90
59961;DHT22;55902;-37.980;-63.602;2023-05-10T15:43:11;24.60;81.60
59961;DHT22;55902;-37.980;-63.602;2023-05-10T15:45:39;24.40;81.00
59961;DHT22;55902;-37.980;-63.602;2023-05-10T15:48:08;24.10;82.60
59961;DHT22;55902;-37.980;-63.602;2023-05-10T15:50:35;23.70;80.90
59961;DHT22;55902;-37.980;-63.602;2023-05-10T15:53:02;23.50;82.00
59961;DHT22;55902;-37.980;-63.602;2023-05-10T15:55:29;23.50;81.90
59961;DHT22;55902;-37.980;-63.602;2023-05-10T15:57:57;24.00;82.70
59961;DHT22;55902;-37.980;-63.602;2023-05-10T16:00:25;24.50;81.30
59961;DHT22;55902;-37.980;-63.602;2023-05-10T16:02:52;25.00;80.80
59961;DHT22;55902;-37.980;-63.602;2023-05-10T16:05:22;25.70;78.00
59961;DHT22;55902;-37.980;-63.602;2023-05-10T16:07:53;26.50;77.20
59961;DHT22;55902;-37.980;-63.602;2023-05-10T16:10:24;26.60;70.20
59961;DHT22;55902;-37.980;-63.602;2023-05-10T16:12:57;26.00;72.10
59961;DHT22;55902;-37.980;-63.602;2023-05-10T16:15:28;25.70;75.80
59961;DHT22;55902;-37.980;-63.602;2023-05-10T16:17:56;25.80;71.40
59961;DHT22;55902;-37.980;-63.602;2023-05-10T16:20:23;26.10;74.50
59961;DHT22;55902;-37.980;-63.602;2023-05-10T16:22:51;26.10;73.60
59961;DHT22;55902;-37.980;-63.602;2023-05-10T16:25:18;26.30;72.00
59961;DHT22;55902;-37.980;-63.602;2023-05-10T16:27:48;26.70;74.10
59961;DHT22;55902;-37.980;-63.602;2023-05-10T16:30:16;26.80;73.90
59961;DHT22;55902;-37.980;-63.602;2023-05-10T16:32:43;26.80;72.60
59961;DHT22;55902;-37.980;-63.602;2023-05-10T16:35:10;26.90;68.90
59961;DHT22;55902;-37.980;-63.602;2023-05-10T16:37:37;26.90;69.10
59961;DHT22;55902;-37.980;-63.602;2023-05-10T16:40:04;26.70;69.10
59961;DHT22;55902;-37.980;-63.602;2023-05-10T16:42:32;26.20;68.20
59961;DHT22;55902;-37.980;-63.602;2023-05-10T16:44:59;25.60;69.70